sensor_id;sensor_type;location;lat;lon;timestamp;pressure;altitude;pressure_sealevel;temperature;humidity
62632;BME280;48703;51.248;-0.546;2023-04-01T00:01:53;99262;;;9.67;97.88
62632;BME280;48703;51.248;-0.546;2023-04-01T00:04:55;99260;;;9.66;97.74
62632;BME280;48703;51.248;-0.546;2023-04-01T00:07:57;99265;;;9.66;97.87
62632;BME280;48703;51.248;-0.546;2023-04-01T00:10:59;99271;;;9.67;97.85
62632;BME280;48703;51.248;-0.546;2023-04-01T00:14:01;99276;;;9.66;98.08
62632;BME280;48703;51.248;-0.546;2023-04-01T00:17:03;99282;;;9.64;97.85
62632;BME280;48703;51.248;-0.546;2023-04-01T00:20:05;99284;;;9.64;97.89
62632;BME280;48703;51.248;-0.546;2023-04-01T00:23:07;99287;;;9.64;97.69
62632;BME280;48703;51.248;-0.546;2023-04-01T00:26:09;99294;;;9.63;97.73
62632;BME280;48703;51.248;-0.546;2023-04-01T00:29:11;99297;;;9.63;97.87
62632;BME280;48703;51.248;-0.546;2023-04-01T00:32:13;99300;;;9.63;97.92
62632;BME280;48703;51.248;-0.546;2023-04-01T00:35:15;99304;;;9.61;98.13
62632;BME280;48703;51.248;-0.546;2023-04-01T00:38:17;99312;;;9.59;98.22
62632;BME280;48703;51.248;-0.546;2023-04-01T00:41:19;99317;;;9.58;98.08
62632;BME280;48703;51.248;-0.546;2023-04-01T00:44:22;99320;;;9.57;98.12
62632;BME280;48703;51.248;-0.546;2023-04-01T00:47:23;99324;;;9.56;98.08
62632;BME280;48703;51.248;-0.546;2023-04-01T00:50:25;99327;;;9.56;98.13
62632;BME280;48703;51.248;-0.546;2023-04-01T00:53:27;99331;;;9.55;98.06
62632;BME280;48703;51.248;-0.546;2023-04-01T00:56:30;99331;;;9.53;97.93
62632;BME280;48703;51.248;-0.546;2023-04-01T00:59:31;99331;;;9.53;97.98
62632;BME280;48703;51.248;-0.546;2023-04-01T01:02:33;99333;;;9.51;98.19
62632;BME280;48703;51.248;-0.546;2023-04-01T01:05:38;99336;;;9.50;98.06
62632;BME280;48703;51.248;-0.546;2023-04-01T01:08:41;99341;;;9.49;98.13
62632;BME280;48703;51.248;-0.546;2023-04-01T01:11:40;99346;;;9.48;98.34
62632;BME280;48703;51.248;-0.546;2023-04-01T01:14:48;99346;;;9.48;98.35
62632;BME280;48703;51.248;-0.546;2023-04-01T01:17:47;99346;;;9.49;98.23
62632;BME280;48703;51.248;-0.546;2023-04-01T01:21:06;99351;;;9.49;98.36
62632;BME280;48703;51.248;-0.546;2023-04-01T01:23:55;99354;;;9.48;98.39
62632;BME280;48703;51.248;-0.546;2023-04-01T01:26:51;99357;;;9.49;98.42
62632;BME280;48703;51.248;-0.546;2023-04-01T01:29:58;99359;;;9.49;98.27
62632;BME280;48703;51.248;-0.546;2023-04-01T01:33:30;99363;;;9.49;98.39
62632;BME280;48703;51.248;-0.546;2023-04-01T01:35:55;99365;;;9.48;98.48
62632;BME280;48703;51.248;-0.546;2023-04-01T01:38:57;99369;;;9.46;98.57
62632;BME280;48703;51.248;-0.546;2023-04-01T01:42:00;99373;;;9.45;98.80
62632;BME280;48703;51.248;-0.546;2023-04-01T01:45:01;99380;;;9.45;98.74
62632;BME280;48703;51.248;-0.546;2023-04-01T01:48:03;99382;;;9.45;98.59
62632;BME280;48703;51.248;-0.546;2023-04-01T01:51:05;99387;;;9.46;98.60
62632;BME280;48703;51.248;-0.546;2023-04-01T01:54:07;99391;;;9.46;98.66
62632;BME280;48703;51.248;-0.546;2023-04-01T01:57:09;99393;;;9.44;98.79
62632;BME280;48703;51.248;-0.546;2023-04-01T02:00:12;99395;;;9.44;98.85
62632;BME280;48703;51.248;-0.546;2023-04-01T02:03:13;99397;;;9.43;98.78
62632;BME280;48703;51.248;-0.546;2023-04-01T02:06:17;99400;;;9.44;98.89
62632;BME280;48703;51.248;-0.546;2023-04-01T02:09:17;99401;;;9.43;98.85
62632;BME280;48703;51.248;-0.546;2023-04-01T02:12:19;99407;;;9.43;98.81
62632;BME280;48703;51.248;-0.546;2023-04-01T02:15:21;99412;;;9.42;99.08
62632;BME280;48703;51.248;-0.546;2023-04-01T02:18:23;99411;;;9.40;99.00
62632;BME280;48703;51.248;-0.546;2023-04-01T02:21:27;99414;;;9.41;98.99
62632;BME280;48703;51.248;-0.546;2023-04-01T02:24:28;99416;;;9.40;99.04
62632;BME280;48703;51.248;-0.546;2023-04-01T02:27:29;99416;;;9.39;99.30
62632;BME280;48703;51.248;-0.546;2023-04-01T02:30:32;99418;;;9.37;99.51
62632;BME280;48703;51.248;-0.546;2023-04-01T02:33:33;99419;;;9.38;99.56
62632;BME280;48703;51.248;-0.546;2023-04-01T02:36:35;99423;;;9.37;99.37
62632;BME280;48703;51.248;-0.546;2023-04-01T02:39:37;99425;;;9.37;99.60
62632;BME280;48703;51.248;-0.546;2023-04-01T02:42:39;99427;;;9.36;99.50
62632;BME280;48703;51.248;-0.546;2023-04-01T02:45:41;99428;;;9.37;99.51
62632;BME280;48703;51.248;-0.546;2023-04-01T02:48:43;99429;;;9.37;99.37
62632;BME280;48703;51.248;-0.546;2023-04-01T02:51:45;99429;;;9.38;99.44
62632;BME280;48703;51.248;-0.546;2023-04-01T02:54:47;99431;;;9.38;99.50
62632;BME280;48703;51.248;-0.546;2023-04-01T02:57:49;99431;;;9.37;99.35
62632;BME280;48703;51.248;-0.546;2023-04-01T03:00:51;99432;;;9.36;99.36
62632;BME280;48703;51.248;-0.546;2023-04-01T03:03:53;99434;;;9.35;99.46
62632;BME280;48703;51.248;-0.546;2023-04-01T03:06:55;99438;;;9.35;99.53
62632;BME280;48703;51.248;-0.546;2023-04-01T03:09:57;99443;;;9.34;99.57
62632;BME280;48703;51.248;-0.546;2023-04-01T03:12:59;99447;;;9.33;99.50
62632;BME280;48703;51.248;-0.546;2023-04-01T03:16:01;99448;;;9.32;99.81
62632;BME280;48703;51.248;-0.546;2023-04-01T03:19:03;99449;;;9.33;99.69
62632;BME280;48703;51.248;-0.546;2023-04-01T03:22:05;99452;;;9.33;99.76
62632;BME280;48703;51.248;-0.546;2023-04-01T03:25:08;99455;;;9.32;99.89
62632;BME280;48703;51.248;-0.546;2023-04-01T03:28:09;99456;;;9.31;99.64
62632;BME280;48703;51.248;-0.546;2023-04-01T03:31:12;99456;;;9.31;99.65
62632;BME280;48703;51.248;-0.546;2023-04-01T03:34:13;99461;;;9.30;99.88
62632;BME280;48703;51.248;-0.546;2023-04-01T03:37:15;99462;;;9.30;99.99
62632;BME280;48703;51.248;-0.546;2023-04-01T03:40:17;99465;;;9.29;99.98
62632;BME280;48703;51.248;-0.546;2023-04-01T03:43:19;99466;;;9.28;99.94
62632;BME280;48703;51.248;-0.546;2023-04-01T03:46:21;99468;;;9.27;99.97
62632;BME280;48703;51.248;-0.546;2023-04-01T03:49:23;99471;;;9.27;100.00
62632;BME280;48703;51.248;-0.546;2023-04-01T03:52:25;99475;;;9.26;100.00
62632;BME280;48703;51.248;-0.546;2023-04-01T03:55:27;99478;;;9.25;100.00
62632;BME280;48703;51.248;-0.546;2023-04-01T03:58:29;99481;;;9.25;100.00
62632;BME280;48703;51.248;-0.546;2023-04-01T04:01:31;99483;;;9.24;100.00
62632;BME280;48703;51.248;-0.546;2023-04-01T04:04:33;99485;;;9.25;99.99
62632;BME280;48703;51.248;-0.546;2023-04-01T04:07:36;99489;;;9.25;99.89
62632;BME280;48703;51.248;-0.546;2023-04-01T04:10:37;99492;;;9.26;99.78
62632;BME280;48703;51.248;-0.546;2023-04-01T04:13:40;99493;;;9.24;99.79
62632;BME280;48703;51.248;-0.546;2023-04-01T04:16:41;99498;;;9.23;99.85
62632;BME280;48703;51.248;-0.546;2023-04-01T04:19:44;99501;;;9.22;99.94
62632;BME280;48703;51.248;-0.546;2023-04-01T04:22:45;99504;;;9.21;100.00
62632;BME280;48703;51.248;-0.546;2023-04-01T04:25:56;99507;;;9.20;99.98
62632;BME280;48703;51.248;-0.546;2023-04-01T04:28:49;99511;;;9.20;100.00
62632;BME280;48703;51.248;-0.546;2023-04-01T04:31:52;99513;;;9.20;99.96
62632;BME280;48703;51.248;-0.546;2023-04-01T04:34:53;99513;;;9.18;99.89
62632;BME280;48703;51.248;-0.546;2023-04-01T04:37:55;99517;;;9.19;99.92
62632;BME280;48703;51.248;-0.546;2023-04-01T04:40:57;99517;;;9.17;99.75
62632;BME280;48703;51.248;-0.546;2023-04-01T04:44:00;99520;;;9.17;99.87
62632;BME280;48703;51.248;-0.546;2023-04-01T04:47:02;99524;;;9.15;99.95
62632;BME280;48703;51.248;-0.546;2023-04-01T04:50:04;99522;;;9.16;99.68
62632;BME280;48703;51.248;-0.546;2023-04-01T04:53:06;99528;;;9.15;99.81
62632;BME280;48703;51.248;-0.546;2023-04-01T04:56:08;99533;;;9.11;99.70
62632;BME280;48703;51.248;-0.546;2023-04-01T04:59:10;99537;;;9.11;99.88
62632;BME280;48703;51.248;-0.546;2023-04-01T05:02:12;99540;;;9.06;99.84
62632;BME280;48703;51.248;-0.546;2023-04-01T05:05:14;99545;;;9.04;99.90
62632;BME280;48703;51.248;-0.546;2023-04-01T05:08:16;99548;;;9.04;99.82
62632;BME280;48703;51.248;-0.546;2023-04-01T05:11:19;99552;;;9.04;99.88
62632;BME280;48703;51.248;-0.546;2023-04-01T05:14:20;99555;;;9.02;99.69
62632;BME280;48703;51.248;-0.546;2023-04-01T05:17:22;99558;;;9.01;99.72
62632;BME280;48703;51.248;-0.546;2023-04-01T05:20:24;99561;;;9.00;99.57
62632;BME280;48703;51.248;-0.546;2023-04-01T05:23:26;99564;;;8.98;99.64
62632;BME280;48703;51.248;-0.546;2023-04-01T05:26:28;99570;;;8.94;99.96
62632;BME280;48703;51.248;-0.546;2023-04-01T05:29:30;99573;;;8.93;99.97
62632;BME280;48703;51.248;-0.546;2023-04-01T05:32:32;99576;;;8.93;99.69
62632;BME280;48703;51.248;-0.546;2023-04-01T05:35:34;99578;;;8.92;99.77
62632;BME280;48703;51.248;-0.546;2023-04-01T05:38:36;99581;;;8.90;99.62
62632;BME280;48703;51.248;-0.546;2023-04-01T05:41:38;99585;;;8.88;99.71
62632;BME280;48703;51.248;-0.546;2023-04-01T05:44:40;99587;;;8.85;99.97
62632;BME280;48703;51.248;-0.546;2023-04-01T05:47:42;99591;;;8.84;99.80
62632;BME280;48703;51.248;-0.546;2023-04-01T05:50:44;99595;;;8.84;99.73
62632;BME280;48703;51.248;-0.546;2023-04-01T05:53:46;99601;;;8.86;99.65
62632;BME280;48703;51.248;-0.546;2023-04-01T05:56:48;99606;;;8.85;99.57
62632;BME280;48703;51.248;-0.546;2023-04-01T05:59:50;99610;;;8.85;99.53
62632;BME280;48703;51.248;-0.546;2023-04-01T06:02:52;99614;;;8.87;99.52
62632;BME280;48703;51.248;-0.546;2023-04-01T06:05:54;99616;;;8.88;99.52
62632;BME280;48703;51.248;-0.546;2023-04-01T06:08:56;99619;;;8.86;99.75
62632;BME280;48703;51.248;-0.546;2023-04-01T06:12:10;99619;;;8.84;99.82
62632;BME280;48703;51.248;-0.546;2023-04-01T06:15:03;99624;;;8.86;99.76
62632;BME280;48703;51.248;-0.546;2023-04-01T06:18:10;99629;;;8.86;99.73
62632;BME280;48703;51.248;-0.546;2023-04-01T06:21:05;99631;;;8.84;99.60
62632;BME280;48703;51.248;-0.546;2023-04-01T06:24:09;99635;;;8.85;99.47
62632;BME280;48703;51.248;-0.546;2023-04-01T06:27:11;99636;;;8.82;99.35
62632;BME280;48703;51.248;-0.546;2023-04-01T06:30:16;99640;;;8.80;98.75
62632;BME280;48703;51.248;-0.546;2023-04-01T06:33:16;99641;;;8.81;98.83
62632;BME280;48703;51.248;-0.546;2023-04-01T06:36:16;99644;;;8.79;98.27
62632;BME280;48703;51.248;-0.546;2023-04-01T06:39:19;99649;;;8.75;97.75
62632;BME280;48703;51.248;-0.546;2023-04-01T06:42:20;99652;;;8.73;97.94
62632;BME280;48703;51.248;-0.546;2023-04-01T06:45:25;99656;;;8.74;98.20
62632;BME280;48703;51.248;-0.546;2023-04-01T06:48:27;99660;;;8.74;98.20
62632;BME280;48703;51.248;-0.546;2023-04-01T06:51:26;99666;;;8.77;98.30
62632;BME280;48703;51.248;-0.546;2023-04-01T06:54:28;99669;;;8.79;98.54
62632;BME280;48703;51.248;-0.546;2023-04-01T06:57:29;99674;;;8.79;98.09
62632;BME280;48703;51.248;-0.546;2023-04-01T07:00:31;99678;;;8.76;97.78
62632;BME280;48703;51.248;-0.546;2023-04-01T07:03:32;99686;;;8.68;97.12
62632;BME280;48703;51.248;-0.546;2023-04-01T07:06:35;99690;;;8.69;97.23
62632;BME280;48703;51.248;-0.546;2023-04-01T07:09:37;99694;;;8.69;97.21
62632;BME280;48703;51.248;-0.546;2023-04-01T07:12:40;99697;;;8.68;96.88
62632;BME280;48703;51.248;-0.546;2023-04-01T07:15:41;99701;;;8.67;97.06
62632;BME280;48703;51.248;-0.546;2023-04-01T07:18:43;99704;;;8.66;96.86
62632;BME280;48703;51.248;-0.546;2023-04-01T07:21:45;99707;;;8.64;96.28
62632;BME280;48703;51.248;-0.546;2023-04-01T07:24:46;99712;;;8.63;96.22
62632;BME280;48703;51.248;-0.546;2023-04-01T07:27:48;99715;;;8.66;96.95
62632;BME280;48703;51.248;-0.546;2023-04-01T07:30:52;99719;;;8.66;97.14
62632;BME280;48703;51.248;-0.546;2023-04-01T07:33:54;99722;;;8.61;96.31
62632;BME280;48703;51.248;-0.546;2023-04-01T07:36:56;99728;;;8.64;96.76
62632;BME280;48703;51.248;-0.546;2023-04-01T07:39:57;99730;;;8.64;96.14
62632;BME280;48703;51.248;-0.546;2023-04-01T07:43:04;99733;;;8.67;96.68
62632;BME280;48703;51.248;-0.546;2023-04-01T07:46:02;99738;;;8.72;97.00
62632;BME280;48703;51.248;-0.546;2023-04-01T07:49:03;99743;;;8.76;97.14
62632;BME280;48703;51.248;-0.546;2023-04-01T07:52:05;99747;;;8.75;96.42
62632;BME280;48703;51.248;-0.546;2023-04-01T07:55:07;99750;;;8.74;95.81
62632;BME280;48703;51.248;-0.546;2023-04-01T07:58:10;99755;;;8.79;96.56
62632;BME280;48703;51.248;-0.546;2023-04-01T08:01:11;99759;;;8.81;96.43
62632;BME280;48703;51.248;-0.546;2023-04-01T08:04:17;99764;;;8.83;95.43
62632;BME280;48703;51.248;-0.546;2023-04-01T08:07:15;99770;;;8.81;94.88
62632;BME280;48703;51.248;-0.546;2023-04-01T08:10:18;99771;;;8.77;94.22
62632;BME280;48703;51.248;-0.546;2023-04-01T08:13:21;99774;;;8.76;94.56
62632;BME280;48703;51.248;-0.546;2023-04-01T08:16:22;99777;;;8.75;95.19
62632;BME280;48703;51.248;-0.546;2023-04-01T08:19:25;99782;;;8.73;94.77
62632;BME280;48703;51.248;-0.546;2023-04-01T08:22:26;99788;;;8.70;95.10
62632;BME280;48703;51.248;-0.546;2023-04-01T08:25:27;99791;;;8.71;95.46
62632;BME280;48703;51.248;-0.546;2023-04-01T08:28:29;99793;;;8.73;95.97
62632;BME280;48703;51.248;-0.546;2023-04-01T08:31:31;99798;;;8.75;96.28
62632;BME280;48703;51.248;-0.546;2023-04-01T08:34:34;99802;;;8.76;96.12
62632;BME280;48703;51.248;-0.546;2023-04-01T08:37:35;99805;;;8.81;96.66
62632;BME280;48703;51.248;-0.546;2023-04-01T08:40:41;99808;;;8.83;96.69
62632;BME280;48703;51.248;-0.546;2023-04-01T08:43:46;99813;;;8.84;96.82
62632;BME280;48703;51.248;-0.546;2023-04-01T08:46:46;99815;;;8.89;96.80
62632;BME280;48703;51.248;-0.546;2023-04-01T08:49:54;99819;;;8.93;96.85
62632;BME280;48703;51.248;-0.546;2023-04-01T08:52:44;99824;;;8.89;95.21
62632;BME280;48703;51.248;-0.546;2023-04-01T08:55:51;99827;;;8.86;95.64
62632;BME280;48703;51.248;-0.546;2023-04-01T08:59:08;99831;;;8.86;96.15
62632;BME280;48703;51.248;-0.546;2023-04-01T09:01:54;99834;;;8.87;95.61
62632;BME280;48703;51.248;-0.546;2023-04-01T09:04:59;99837;;;8.93;96.06
62632;BME280;48703;51.248;-0.546;2023-04-01T09:07:57;99842;;;8.95;95.57
62632;BME280;48703;51.248;-0.546;2023-04-01T09:10:59;99844;;;8.92;95.16
62632;BME280;48703;51.248;-0.546;2023-04-01T09:14:03;99846;;;8.95;95.18
62632;BME280;48703;51.248;-0.546;2023-04-01T09:17:03;99848;;;8.96;95.83
62632;BME280;48703;51.248;-0.546;2023-04-01T09:20:06;99852;;;8.95;94.60
62632;BME280;48703;51.248;-0.546;2023-04-01T09:23:14;99856;;;8.93;94.10
62632;BME280;48703;51.248;-0.546;2023-04-01T09:26:10;99860;;;8.99;95.22
62632;BME280;48703;51.248;-0.546;2023-04-01T09:29:12;99864;;;9.03;94.70
62632;BME280;48703;51.248;-0.546;2023-04-01T09:32:14;99869;;;8.99;93.56
62632;BME280;48703;51.248;-0.546;2023-04-01T09:35:19;99870;;;9.00;93.69
62632;BME280;48703;51.248;-0.546;2023-04-01T09:38:20;99873;;;8.98;93.35
62632;BME280;48703;51.248;-0.546;2023-04-01T09:41:18;99875;;;8.96;93.70
62632;BME280;48703;51.248;-0.546;2023-04-01T09:44:20;99878;;;8.94;93.73
62632;BME280;48703;51.248;-0.546;2023-04-01T09:47:25;99882;;;8.94;93.76
62632;BME280;48703;51.248;-0.546;2023-04-01T09:50:28;99887;;;8.90;92.22
62632;BME280;48703;51.248;-0.546;2023-04-01T09:53:28;99889;;;8.88;92.94
62632;BME280;48703;51.248;-0.546;2023-04-01T09:56:33;99894;;;8.93;93.94
62632;BME280;48703;51.248;-0.546;2023-04-01T10:01:44;99896;;;8.94;94.17
62632;BME280;48703;51.248;-0.546;2023-04-01T10:02:36;99903;;;8.96;93.66
62632;BME280;48703;51.248;-0.546;2023-04-01T10:05:38;99909;;;8.98;93.45
62632;BME280;48703;51.248;-0.546;2023-04-01T10:08:56;99915;;;9.03;93.55
62632;BME280;48703;51.248;-0.546;2023-04-01T10:11:50;99917;;;9.03;93.52
62632;BME280;48703;51.248;-0.546;2023-04-01T10:15:47;99922;;;9.06;93.57
62632;BME280;48703;51.248;-0.546;2023-04-01T10:17:44;99927;;;9.08;94.19
62632;BME280;48703;51.248;-0.546;2023-04-01T10:20:46;99932;;;9.05;92.38
62632;BME280;48703;51.248;-0.546;2023-04-01T10:23:50;99935;;;9.05;92.45
62632;BME280;48703;51.248;-0.546;2023-04-01T10:26:51;99939;;;9.08;93.19
62632;BME280;48703;51.248;-0.546;2023-04-01T10:29:55;99942;;;9.09;93.21
62632;BME280;48703;51.248;-0.546;2023-04-01T10:32:58;99945;;;9.10;93.21
62632;BME280;48703;51.248;-0.546;2023-04-01T10:36:00;99950;;;9.12;93.04
62632;BME280;48703;51.248;-0.546;2023-04-01T10:40:06;99954;;;9.14;93.59
62632;BME280;48703;51.248;-0.546;2023-04-01T10:42:18;99958;;;9.12;92.88
62632;BME280;48703;51.248;-0.546;2023-04-01T10:45:03;99962;;;9.14;93.98
62632;BME280;48703;51.248;-0.546;2023-04-01T10:48:12;99969;;;9.13;93.07
62632;BME280;48703;51.248;-0.546;2023-04-01T10:51:20;99974;;;9.07;92.56
62632;BME280;48703;51.248;-0.546;2023-04-01T10:54:09;99980;;;9.04;92.55
62632;BME280;48703;51.248;-0.546;2023-04-01T10:57:10;99981;;;9.08;92.59
62632;BME280;48703;51.248;-0.546;2023-04-01T11:00:17;99983;;;9.15;92.76
62632;BME280;48703;51.248;-0.546;2023-04-01T11:03:18;99985;;;9.22;91.58
62632;BME280;48703;51.248;-0.546;2023-04-01T11:06:22;99981;;;9.31;93.38
62632;BME280;48703;51.248;-0.546;2023-04-01T11:12:49;99982;;;9.33;90.76
62632;BME280;48703;51.248;-0.546;2023-04-01T11:15:23;99986;;;9.37;91.02
62632;BME280;48703;51.248;-0.546;2023-04-01T11:18:31;99985;;;9.39;90.92
62632;BME280;48703;51.248;-0.546;2023-04-01T11:21:36;99988;;;9.50;92.09
62632;BME280;48703;51.248;-0.546;2023-04-01T11:24:30;99991;;;9.63;91.67
62632;BME280;48703;51.248;-0.546;2023-04-01T11:27:33;99996;;;9.68;90.85
62632;BME280;48703;51.248;-0.546;2023-04-01T11:30:32;99999;;;9.75;89.77
62632;BME280;48703;51.248;-0.546;2023-04-01T11:33:33;100003;;;9.89;91.77
62632;BME280;48703;51.248;-0.546;2023-04-01T11:36:36;100005;;;10.02;91.00
62632;BME280;48703;51.248;-0.546;2023-04-01T11:39:37;100007;;;10.08;89.58
62632;BME280;48703;51.248;-0.546;2023-04-01T11:42:40;100011;;;10.18;87.93
62632;BME280;48703;51.248;-0.546;2023-04-01T11:45:39;100017;;;10.24;87.79
62632;BME280;48703;51.248;-0.546;2023-04-01T11:48:45;100020;;;10.25;87.63
62632;BME280;48703;51.248;-0.546;2023-04-01T11:51:48;100027;;;10.31;89.55
62632;BME280;48703;51.248;-0.546;2023-04-01T11:54:54;100031;;;10.30;86.71
62632;BME280;48703;51.248;-0.546;2023-04-01T11:57:51;100037;;;10.39;87.91
62632;BME280;48703;51.248;-0.546;2023-04-01T12:00:02;100041;;;10.42;87.11
62632;BME280;48703;51.248;-0.546;2023-04-01T12:03:02;100043;;;10.41;85.50
62632;BME280;48703;51.248;-0.546;2023-04-01T12:05:54;100048;;;10.50;86.03
62632;BME280;48703;51.248;-0.546;2023-04-01T12:08:58;100052;;;10.58;86.81
62632;BME280;48703;51.248;-0.546;2023-04-01T12:12:06;100055;;;10.65;86.49
62632;BME280;48703;51.248;-0.546;2023-04-01T12:15:04;100059;;;10.71;86.87
62632;BME280;48703;51.248;-0.546;2023-04-01T12:18:05;100065;;;10.73;84.21
62632;BME280;48703;51.248;-0.546;2023-04-01T12:21:05;100070;;;10.65;84.28
62632;BME280;48703;51.248;-0.546;2023-04-01T12:26:10;100071;;;10.73;87.64
62632;BME280;48703;51.248;-0.546;2023-04-01T12:29:12;100071;;;10.76;84.93
62632;BME280;48703;51.248;-0.546;2023-04-01T12:32:14;100074;;;10.81;86.99
62632;BME280;48703;51.248;-0.546;2023-04-01T12:35:15;100083;;;10.79;84.46
62632;BME280;48703;51.248;-0.546;2023-04-01T12:38:16;100086;;;10.75;82.90
62632;BME280;48703;51.248;-0.546;2023-04-01T12:41:17;100091;;;10.77;83.33
62632;BME280;48703;51.248;-0.546;2023-04-01T12:44:37;100097;;;10.74;82.88
62632;BME280;48703;51.248;-0.546;2023-04-01T12:47:23;100102;;;10.70;83.44
62632;BME280;48703;51.248;-0.546;2023-04-01T12:50:25;100109;;;10.63;81.99
62632;BME280;48703;51.248;-0.546;2023-04-01T12:53:28;100112;;;10.66;82.17
62632;BME280;48703;51.248;-0.546;2023-04-01T12:57:31;100114;;;10.72;80.64
62632;BME280;48703;51.248;-0.546;2023-04-01T13:00:33;100118;;;10.77;81.43
62632;BME280;48703;51.248;-0.546;2023-04-01T13:03:36;100120;;;10.84;81.73
62632;BME280;48703;51.248;-0.546;2023-04-01T13:06:36;100123;;;10.88;81.81
62632;BME280;48703;51.248;-0.546;2023-04-01T13:09:36;100124;;;10.87;81.64
62632;BME280;48703;51.248;-0.546;2023-04-01T13:12:40;100126;;;10.86;81.93
62632;BME280;48703;51.248;-0.546;2023-04-01T13:15:40;100131;;;10.90;82.84
62632;BME280;48703;51.248;-0.546;2023-04-01T13:18:44;100137;;;10.92;81.37
62632;BME280;48703;51.248;-0.546;2023-04-01T13:21:45;100141;;;10.96;81.91
62632;BME280;48703;51.248;-0.546;2023-04-01T13:24:46;100145;;;10.96;80.47
62632;BME280;48703;51.248;-0.546;2023-04-01T13:27:47;100147;;;11.00;81.66
62632;BME280;48703;51.248;-0.546;2023-04-01T13:30:50;100151;;;11.00;81.10
62632;BME280;48703;51.248;-0.546;2023-04-01T13:33:53;100160;;;10.96;79.83
62632;BME280;48703;51.248;-0.546;2023-04-01T13:36:56;100165;;;10.89;80.25
62632;BME280;48703;51.248;-0.546;2023-04-01T13:40:02;100169;;;10.89;79.50
62632;BME280;48703;51.248;-0.546;2023-04-01T13:42:57;100171;;;10.85;79.55
62632;BME280;48703;51.248;-0.546;2023-04-01T13:46:06;100176;;;10.87;79.11
62632;BME280;48703;51.248;-0.546;2023-04-01T13:49:06;100178;;;10.94;79.39
62632;BME280;48703;51.248;-0.546;2023-04-01T13:52:08;100182;;;11.02;79.66
62632;BME280;48703;51.248;-0.546;2023-04-01T13:55:10;100184;;;11.07;78.60
62632;BME280;48703;51.248;-0.546;2023-04-01T13:58:13;100188;;;11.10;78.26
62632;BME280;48703;51.248;-0.546;2023-04-01T14:01:10;100195;;;11.02;77.56
62632;BME280;48703;51.248;-0.546;2023-04-01T14:04:16;100200;;;10.96;78.32
62632;BME280;48703;51.248;-0.546;2023-04-01T14:07:31;100206;;;10.92;78.44
62632;BME280;48703;51.248;-0.546;2023-04-01T14:10:18;100211;;;10.85;78.49
62632;BME280;48703;51.248;-0.546;2023-04-01T14:13:18;100218;;;10.81;79.59
62632;BME280;48703;51.248;-0.546;2023-04-01T14:16:24;100225;;;10.77;79.63
62632;BME280;48703;51.248;-0.546;2023-04-01T14:19:23;100226;;;10.70;79.64
62632;BME280;48703;51.248;-0.546;2023-04-01T14:22:25;100235;;;10.71;80.00
62632;BME280;48703;51.248;-0.546;2023-04-01T14:25:31;100241;;;10.71;79.88
62632;BME280;48703;51.248;-0.546;2023-04-01T14:28:28;100244;;;10.65;79.76
62632;BME280;48703;51.248;-0.546;2023-04-01T14:31:36;100250;;;10.58;79.75
62632;BME280;48703;51.248;-0.546;2023-04-01T14:34:35;100254;;;10.56;80.79
62632;BME280;48703;51.248;-0.546;2023-04-01T14:37:55;100256;;;10.51;80.58
62632;BME280;48703;51.248;-0.546;2023-04-01T14:40:40;100258;;;10.53;81.20
62632;BME280;48703;51.248;-0.546;2023-04-01T14:44:09;100261;;;10.49;80.45
62632;BME280;48703;51.248;-0.546;2023-04-01T14:47:04;100267;;;10.45;80.71
62632;BME280;48703;51.248;-0.546;2023-04-01T14:49:44;100272;;;10.43;81.76
62632;BME280;48703;51.248;-0.546;2023-04-01T14:52:44;100278;;;10.44;81.48
62632;BME280;48703;51.248;-0.546;2023-04-01T14:55:48;100287;;;10.42;80.49
62632;BME280;48703;51.248;-0.546;2023-04-01T14:58:47;100293;;;10.37;80.66
62632;BME280;48703;51.248;-0.546;2023-04-01T15:01:50;100300;;;10.34;81.14
62632;BME280;48703;51.248;-0.546;2023-04-01T15:04:53;100302;;;10.35;80.31
62632;BME280;48703;51.248;-0.546;2023-04-01T15:08:00;100311;;;10.32;78.69
62632;BME280;48703;51.248;-0.546;2023-04-01T15:11:01;100309;;;10.24;79.12
62632;BME280;48703;51.248;-0.546;2023-04-01T15:14:16;100312;;;10.28;79.65
62632;BME280;48703;51.248;-0.546;2023-04-01T15:17:02;100316;;;10.28;79.14
62632;BME280;48703;51.248;-0.546;2023-04-01T15:20:07;100321;;;10.28;79.20
62632;BME280;48703;51.248;-0.546;2023-04-01T15:23:08;100328;;;10.23;78.47
62632;BME280;48703;51.248;-0.546;2023-04-01T15:26:10;100334;;;10.20;79.43
62632;BME280;48703;51.248;-0.546;2023-04-01T15:29:11;100339;;;10.15;79.24
62632;BME280;48703;51.248;-0.546;2023-04-01T15:32:13;100339;;;10.07;79.27
62632;BME280;48703;51.248;-0.546;2023-04-01T15:35:14;100345;;;10.07;80.21
62632;BME280;48703;51.248;-0.546;2023-04-01T15:38:16;100354;;;10.08;80.02
62632;BME280;48703;51.248;-0.546;2023-04-01T15:41:15;100354;;;10.09;80.33
62632;BME280;48703;51.248;-0.546;2023-04-01T15:44:37;100361;;;10.09;79.90
62632;BME280;48703;51.248;-0.546;2023-04-01T15:47:31;100364;;;10.07;79.85
62632;BME280;48703;51.248;-0.546;2023-04-01T15:50:26;100369;;;10.03;79.08
62632;BME280;48703;51.248;-0.546;2023-04-01T15:53:27;100374;;;9.97;79.90
62632;BME280;48703;51.248;-0.546;2023-04-01T15:56:26;100379;;;9.93;79.66
62632;BME280;48703;51.248;-0.546;2023-04-01T15:59:32;100384;;;9.93;80.38
62632;BME280;48703;51.248;-0.546;2023-04-01T16:02:31;100388;;;9.89;80.20
62632;BME280;48703;51.248;-0.546;2023-04-01T16:05:34;100393;;;9.85;79.91
62632;BME280;48703;51.248;-0.546;2023-04-01T16:08:41;100396;;;9.86;79.96
62632;BME280;48703;51.248;-0.546;2023-04-01T16:11:37;100398;;;9.86;79.95
62632;BME280;48703;51.248;-0.546;2023-04-01T16:14:39;100401;;;9.91;80.45
62632;BME280;48703;51.248;-0.546;2023-04-01T16:17:49;100406;;;9.90;78.61
62632;BME280;48703;51.248;-0.546;2023-04-01T16:20:44;100412;;;9.91;79.39
62632;BME280;48703;51.248;-0.546;2023-04-01T16:23:46;100420;;;9.90;78.73
62632;BME280;48703;51.248;-0.546;2023-04-01T16:26:47;100428;;;9.88;78.98
62632;BME280;48703;51.248;-0.546;2023-04-01T16:29:48;100438;;;9.83;77.75
62632;BME280;48703;51.248;-0.546;2023-04-01T16:32:50;100435;;;9.79;78.78
62632;BME280;48703;51.248;-0.546;2023-04-01T16:35:53;100441;;;9.74;77.86
62632;BME280;48703;51.248;-0.546;2023-04-01T16:39:06;100444;;;9.69;77.99
62632;BME280;48703;51.248;-0.546;2023-04-01T16:41:59;100451;;;9.68;78.96